CPA6541 VHHH-RKSI
Flight info
| Callsign | CPA6541 |
|---|---|
| Flight time | 2h 43m |
| Altitude | 36000 |
| Route | DALOL V631 ENVAR M750 ANLOT B1 APU DCT DRAKE Q11 WP900 L4 LIPLO Y741 ATOTI Y722 OLMEN OLMEN2E |
| Aircraft | A359/H-SDE2E3GHIJ3J4J5LM1ORWXY/LB1D1 |
Departure
| Time | 2026-05-04 12:57 |
|---|---|
| Airport | Hong Kong International Airport (VHHH) |
Arrival
| Time | 2026-05-04 15:41 |
|---|---|
| Airport | Incheon International Airport (RKSI) |
| Time | Latitude | Longitude | Altitude | Speed | Heading |
|---|---|---|---|---|---|
| 2026-05-04 12:26 | 22.31050 | 113.92707 | 43 ft | 0 kts | 295° |
| 2026-05-04 12:28 | 22.31050 | 113.92708 | 43 ft | 0 kts | 295° |
| 2026-05-04 12:42 | 22.31048 | 113.92712 | 43 ft | 2 kts | 295° |
| 2026-05-04 12:43 | 22.31046 | 113.92718 | 43 ft | 2 kts | 295° |
| 2026-05-04 12:43 | 22.31038 | 113.92734 | 16 ft | 2 kts | 295° |
| 2026-05-04 12:43 | 22.31032 | 113.92749 | 41 ft | 2 kts | 295° |
| 2026-05-04 12:43 | 22.31027 | 113.92760 | 40 ft | 2 kts | 295° |
| 2026-05-04 12:44 | 22.31021 | 113.92772 | 40 ft | 2 kts | 295° |
| 2026-05-04 12:44 | 22.31014 | 113.92793 | 39 ft | 4 kts | 279° |
| 2026-05-04 12:44 | 22.31014 | 113.92817 | 39 ft | 4 kts | 219° |
| 2026-05-04 12:44 | 22.31015 | 113.92819 | 39 ft | 0 kts | 201° |
| 2026-05-04 12:48 | 22.31000 | 113.92811 | 41 ft | 9 kts | 206° |
| 2026-05-04 12:48 | 22.30925 | 113.92761 | 43 ft | 14 kts | 211° |
| 2026-05-04 12:48 | 22.30848 | 113.92696 | 43 ft | 14 kts | 243° |
| 2026-05-04 12:48 | 22.30804 | 113.92594 | 43 ft | 16 kts | 248° |
| 2026-05-04 12:49 | 22.30765 | 113.92477 | 43 ft | 18 kts | 251° |
| 2026-05-04 12:49 | 22.30722 | 113.92345 | 43 ft | 20 kts | 250° |
| 2026-05-04 12:49 | 22.30675 | 113.92200 | 43 ft | 21 kts | 250° |
| 2026-05-04 12:49 | 22.30624 | 113.92043 | 43 ft | 23 kts | 250° |
| 2026-05-04 12:50 | 22.30569 | 113.91872 | 43 ft | 25 kts | 252° |
| 2026-05-04 12:50 | 22.30512 | 113.91690 | 43 ft | 26 kts | 251° |
| 2026-05-04 12:50 | 22.30451 | 113.91498 | 43 ft | 28 kts | 251° |
| 2026-05-04 12:50 | 22.30386 | 113.91295 | 43 ft | 29 kts | 251° |
| 2026-05-04 12:51 | 22.30318 | 113.91086 | 43 ft | 19 kts | 251° |
| 2026-05-04 12:51 | 22.30272 | 113.90942 | 43 ft | 21 kts | 251° |
| 2026-05-04 12:51 | 22.30221 | 113.90785 | 43 ft | 23 kts | 251° |
| 2026-05-04 12:51 | 22.30166 | 113.90614 | 43 ft | 25 kts | 251° |
| 2026-05-04 12:52 | 22.30106 | 113.90429 | 43 ft | 27 kts | 251° |
| 2026-05-04 12:52 | 22.30041 | 113.90232 | 43 ft | 29 kts | 251° |
| 2026-05-04 12:52 | 22.29973 | 113.90023 | 43 ft | 30 kts | 251° |
| 2026-05-04 12:52 | 22.29902 | 113.89802 | 43 ft | 32 kts | 251° |
| 2026-05-04 12:53 | 22.29782 | 113.89753 | 43 ft | 14 kts | 159° |
| 2026-05-04 12:53 | 22.29766 | 113.89759 | 43 ft | 0 kts | 161° |
| 2026-05-04 12:55 | 22.29759 | 113.89762 | 43 ft | 6 kts | 161° |
| 2026-05-04 12:55 | 22.29690 | 113.89807 | 43 ft | 15 kts | 128° |
| 2026-05-04 12:55 | 22.29654 | 113.89897 | 43 ft | 8 kts | 77° |
| 2026-05-04 12:56 | 22.29675 | 113.89960 | 43 ft | 10 kts | 71° |
| 2026-05-04 12:56 | 22.29702 | 113.90048 | 43 ft | 24 kts | 72° |
| 2026-05-04 12:56 | 22.29838 | 113.90472 | 41 ft | 95 kts | 71° |
| 2026-05-04 12:56 | 22.30131 | 113.91362 | 44 ft | 156 kts | 71° |
| 2026-05-04 12:57 | 22.30513 | 113.92580 | 469 ft | 175 kts | 73° |
| 2026-05-04 12:57 | 22.30900 | 113.93816 | 1278 ft | 172 kts | 72° |
| 2026-05-04 12:57 | 22.31312 | 113.95080 | 1832 ft | 186 kts | 72° |
| 2026-05-04 12:57 | 22.31755 | 113.96446 | 2263 ft | 198 kts | 72° |
| 2026-05-04 12:58 | 22.32215 | 113.97873 | 2823 ft | 204 kts | 72° |
| 2026-05-04 12:58 | 22.32676 | 113.99308 | 3389 ft | 209 kts | 72° |
| 2026-05-04 12:58 | 22.33167 | 114.00827 | 3888 ft | 217 kts | 72° |
| 2026-05-04 12:58 | 22.33639 | 114.02396 | 4417 ft | 223 kts | 76° |
| 2026-05-04 12:59 | 22.33827 | 114.04118 | 4776 ft | 238 kts | 94° |
| 2026-05-04 12:59 | 22.33433 | 114.05868 | 5245 ft | 244 kts | 116° |
| 2026-05-04 12:59 | 22.32456 | 114.07369 | 5761 ft | 247 kts | 138° |
| 2026-05-04 12:59 | 22.31028 | 114.08376 | 6303 ft | 247 kts | 160° |
| 2026-05-04 13:00 | 22.29361 | 114.08770 | 6870 ft | 245 kts | 179° |
| 2026-05-04 13:00 | 22.27657 | 114.08800 | 7468 ft | 245 kts | 183° |
| 2026-05-04 13:00 | 22.25943 | 114.08776 | 8051 ft | 247 kts | 184° |
| 2026-05-04 13:00 | 22.24213 | 114.08757 | 8627 ft | 251 kts | 184° |
| 2026-05-04 13:01 | 22.22415 | 114.08732 | 8925 ft | 266 kts | 184° |
| 2026-05-04 13:01 | 22.20510 | 114.08698 | 9267 ft | 280 kts | 184° |
| 2026-05-04 13:01 | 22.18539 | 114.08741 | 9773 ft | 288 kts | 178° |
| 2026-05-04 13:01 | 22.16588 | 114.09371 | 10240 ft | 302 kts | 156° |
| 2026-05-04 13:02 | 22.14953 | 114.10904 | 10456 ft | 325 kts | 129° |
| 2026-05-04 13:02 | 22.13789 | 114.13067 | 10685 ft | 341 kts | 120° |
| 2026-05-04 13:02 | 22.12713 | 114.15407 | 10917 ft | 355 kts | 118° |
| 2026-05-04 13:02 | 22.11620 | 114.17806 | 11125 ft | 366 kts | 118° |
| 2026-05-04 13:03 | 22.10470 | 114.20307 | 11327 ft | 378 kts | 118° |
| 2026-05-04 13:03 | 22.09278 | 114.22863 | 11614 ft | 385 kts | 119° |
| 2026-05-04 13:03 | 22.07961 | 114.25385 | 11975 ft | 387 kts | 127° |
| 2026-05-04 13:03 | 22.06121 | 114.27480 | 12369 ft | 384 kts | 143° |
| 2026-05-04 13:04 | 22.03996 | 114.29231 | 12782 ft | 386 kts | 147° |
| 2026-05-04 13:04 | 22.01812 | 114.30930 | 13180 ft | 388 kts | 148° |
| 2026-05-04 13:04 | 21.99611 | 114.32636 | 13588 ft | 391 kts | 148° |
| 2026-05-04 13:04 | 21.97402 | 114.34357 | 13965 ft | 393 kts | 148° |
| 2026-05-04 13:05 | 21.95177 | 114.36102 | 14310 ft | 396 kts | 147° |
| 2026-05-04 13:05 | 21.92946 | 114.37857 | 14659 ft | 398 kts | 147° |
| 2026-05-04 13:05 | 21.90704 | 114.39617 | 15006 ft | 400 kts | 147° |
| 2026-05-04 13:05 | 21.88448 | 114.41389 | 15353 ft | 402 kts | 147° |
| 2026-05-04 13:06 | 21.86279 | 114.43322 | 15691 ft | 409 kts | 137° |
| 2026-05-04 13:06 | 21.84586 | 114.45804 | 16033 ft | 417 kts | 120° |
| 2026-05-04 13:06 | 21.83550 | 114.48738 | 16388 ft | 422 kts | 109° |
| 2026-05-04 13:06 | 21.82761 | 114.51781 | 16726 ft | 424 kts | 107° |
| 2026-05-04 13:07 | 21.82000 | 114.54863 | 17055 ft | 427 kts | 107° |
| 2026-05-04 13:07 | 21.81228 | 114.57960 | 17393 ft | 429 kts | 107° |
| 2026-05-04 13:07 | 21.80441 | 114.61069 | 17730 ft | 431 kts | 107° |
| 2026-05-04 13:07 | 21.79643 | 114.64186 | 18051 ft | 434 kts | 107° |
| 2026-05-04 13:08 | 21.78834 | 114.67329 | 18364 ft | 437 kts | 107° |
| 2026-05-04 13:08 | 21.78019 | 114.70483 | 18638 ft | 439 kts | 107° |
| 2026-05-04 13:08 | 21.77198 | 114.73651 | 18919 ft | 441 kts | 107° |
| 2026-05-04 13:08 | 21.76371 | 114.76840 | 19192 ft | 443 kts | 107° |
| 2026-05-04 13:09 | 21.75539 | 114.80042 | 19481 ft | 445 kts | 107° |
| 2026-05-04 13:09 | 21.74743 | 114.83261 | 19752 ft | 448 kts | 104° |
| 2026-05-04 13:09 | 21.74313 | 114.86591 | 20012 ft | 451 kts | 96° |
| 2026-05-04 13:09 | 21.74158 | 114.89927 | 20295 ft | 453 kts | 92° |
| 2026-05-04 13:10 | 21.74140 | 114.93328 | 20566 ft | 456 kts | 90° |
| 2026-05-04 13:10 | 21.74187 | 114.96743 | 20847 ft | 458 kts | 89° |
| 2026-05-04 13:10 | 21.74251 | 115.00173 | 21089 ft | 460 kts | 89° |
| 2026-05-04 13:10 | 21.74306 | 115.03623 | 21342 ft | 462 kts | 90° |
| 2026-05-04 13:11 | 21.74342 | 115.07081 | 21622 ft | 464 kts | 90° |
| 2026-05-04 13:11 | 21.74359 | 115.10558 | 21887 ft | 465 kts | 90° |
| 2026-05-04 13:11 | 21.74363 | 115.14047 | 22131 ft | 467 kts | 91° |
| 2026-05-04 13:11 | 21.74359 | 115.17549 | 22383 ft | 469 kts | 91° |
| 2026-05-04 13:12 | 21.74352 | 115.21063 | 22628 ft | 471 kts | 91° |
| 2026-05-04 13:12 | 21.74344 | 115.24596 | 22874 ft | 473 kts | 91° |
| 2026-05-04 13:12 | 21.74335 | 115.28141 | 23112 ft | 475 kts | 91° |
| 2026-05-04 13:12 | 21.74325 | 115.31699 | 23353 ft | 477 kts | 91° |
| 2026-05-04 13:13 | 21.74316 | 115.35272 | 23591 ft | 479 kts | 91° |
| 2026-05-04 13:13 | 21.74307 | 115.38860 | 23782 ft | 481 kts | 91° |
| 2026-05-04 13:13 | 21.74296 | 115.42463 | 23977 ft | 483 kts | 91° |
| 2026-05-04 13:13 | 21.74286 | 115.46074 | 24182 ft | 484 kts | 91° |
| 2026-05-04 13:14 | 21.74274 | 115.49704 | 24373 ft | 486 kts | 91° |
| 2026-05-04 13:14 | 21.74262 | 115.53343 | 24567 ft | 487 kts | 91° |
| 2026-05-04 13:14 | 21.74249 | 115.56993 | 24762 ft | 489 kts | 91° |
| 2026-05-04 13:14 | 21.74236 | 115.60659 | 24966 ft | 490 kts | 91° |
| 2026-05-04 13:15 | 21.74222 | 115.64339 | 25165 ft | 492 kts | 91° |
| 2026-05-04 13:15 | 21.74208 | 115.68028 | 25370 ft | 494 kts | 91° |
| 2026-05-04 13:15 | 21.74193 | 115.71728 | 25569 ft | 495 kts | 91° |
| 2026-05-04 13:15 | 21.74177 | 115.75389 | 25779 ft | 497 kts | 91° |
| 2026-05-04 13:16 | 21.74161 | 115.79159 | 25986 ft | 498 kts | 92° |
| 2026-05-04 13:16 | 21.74143 | 115.82842 | 26195 ft | 500 kts | 92° |
| 2026-05-04 13:16 | 21.74124 | 115.86591 | 26397 ft | 502 kts | 92° |
| 2026-05-04 13:16 | 21.74105 | 115.90349 | 26618 ft | 503 kts | 92° |
| 2026-05-04 13:17 | 21.74085 | 115.94118 | 26842 ft | 505 kts | 92° |
| 2026-05-04 13:17 | 21.74061 | 115.97901 | 27044 ft | 506 kts | 95° |
| 2026-05-04 13:17 | 21.73926 | 116.01682 | 27208 ft | 507 kts | 98° |
| 2026-05-04 13:17 | 21.73787 | 116.04201 | 27296 ft | 508 kts | 98° |
| 2026-05-04 13:18 | 21.73525 | 116.09290 | 27531 ft | 510 kts | 97° |
| 2026-05-04 13:18 | 21.73385 | 116.13104 | 27706 ft | 512 kts | 97° |
| 2026-05-04 13:18 | 21.73320 | 116.15638 | 27825 ft | 513 kts | 96° |
| 2026-05-04 13:18 | 21.73255 | 116.19479 | 28003 ft | 514 kts | 96° |
| 2026-05-04 13:19 | 21.73217 | 116.23327 | 28186 ft | 515 kts | 95° |
| 2026-05-04 13:19 | 21.73190 | 116.27186 | 28349 ft | 517 kts | 95° |
| 2026-05-04 13:19 | 21.73167 | 116.31051 | 28534 ft | 518 kts | 95° |
| 2026-05-04 13:19 | 21.73143 | 116.34931 | 28716 ft | 519 kts | 95° |
| 2026-05-04 13:20 | 21.73117 | 116.38813 | 28895 ft | 520 kts | 95° |
| 2026-05-04 13:20 | 21.73086 | 116.42711 | 29062 ft | 521 kts | 96° |
| 2026-05-04 13:20 | 21.73053 | 116.46617 | 29240 ft | 522 kts | 96° |
| 2026-05-04 13:20 | 21.73017 | 116.50526 | 29360 ft | 525 kts | 96° |
| 2026-05-04 13:21 | 21.72978 | 116.54467 | 29415 ft | 529 kts | 96° |
| 2026-05-04 13:21 | 21.72903 | 116.62433 | 29531 ft | 538 kts | 95° |
| 2026-05-04 13:21 | 21.72866 | 116.66486 | 29681 ft | 545 kts | 95° |
| 2026-05-04 13:22 | 21.72833 | 116.70287 | 29807 ft | 551 kts | 95° |
| 2026-05-04 13:22 | 21.73230 | 116.78280 | 29949 ft | 566 kts | 83° |
| 2026-05-04 13:22 | 21.74247 | 116.82324 | 30233 ft | 568 kts | 74° |
| 2026-05-04 13:23 | 21.75534 | 116.86257 | 30569 ft | 567 kts | 72° |
| 2026-05-04 13:23 | 21.76921 | 116.90236 | 30811 ft | 568 kts | 71° |
| 2026-05-04 13:23 | 21.78354 | 116.94204 | 31061 ft | 569 kts | 71° |
| 2026-05-04 13:23 | 21.79806 | 116.98171 | 31320 ft | 569 kts | 71° |
| 2026-05-04 13:24 | 21.81257 | 117.02133 | 31580 ft | 569 kts | 71° |
| 2026-05-04 13:24 | 21.82703 | 117.06099 | 31832 ft | 570 kts | 71° |
| 2026-05-04 13:24 | 21.84142 | 117.10071 | 32069 ft | 570 kts | 71° |
| 2026-05-04 13:25 | 21.87004 | 117.18027 | 32557 ft | 570 kts | 71° |
| 2026-05-04 13:25 | 21.88433 | 117.22015 | 32808 ft | 570 kts | 71° |
| 2026-05-04 13:25 | 21.89857 | 117.25996 | 33046 ft | 570 kts | 71° |
| 2026-05-04 13:25 | 21.91264 | 117.29928 | 33284 ft | 570 kts | 71° |
| 2026-05-04 13:26 | 21.92687 | 117.33908 | 33514 ft | 570 kts | 71° |
| 2026-05-04 13:26 | 21.94110 | 117.37891 | 33740 ft | 570 kts | 71° |
| 2026-05-04 13:26 | 21.95533 | 117.41874 | 33961 ft | 570 kts | 71° |
| 2026-05-04 13:26 | 21.96955 | 117.45856 | 34166 ft | 570 kts | 71° |
| 2026-05-04 13:27 | 22.00411 | 117.53501 | 34492 ft | 566 kts | 61° |
| 2026-05-04 13:27 | 22.02405 | 117.57154 | 34781 ft | 563 kts | 60° |
| 2026-05-04 13:27 | 22.04424 | 117.60762 | 34983 ft | 562 kts | 59° |
| 2026-05-04 13:28 | 22.06464 | 117.64358 | 35179 ft | 562 kts | 59° |
| 2026-05-04 13:28 | 22.08506 | 117.67939 | 35367 ft | 561 kts | 59° |
| 2026-05-04 13:28 | 22.10552 | 117.71527 | 35556 ft | 561 kts | 59° |
| 2026-05-04 13:28 | 22.12594 | 117.75115 | 35727 ft | 561 kts | 59° |
| 2026-05-04 13:29 | 22.14630 | 117.78705 | 35899 ft | 560 kts | 59° |
| 2026-05-04 13:29 | 22.16658 | 117.82288 | 36051 ft | 561 kts | 59° |
| 2026-05-04 13:29 | 22.20727 | 117.89503 | 36064 ft | 564 kts | 60° |
| 2026-05-04 13:30 | 22.24812 | 117.96746 | 36063 ft | 565 kts | 60° |
| 2026-05-04 13:30 | 22.28920 | 118.04002 | 36065 ft | 567 kts | 59° |
| 2026-05-04 13:31 | 22.33104 | 118.11164 | 36063 ft | 567 kts | 58° |
| 2026-05-04 13:31 | 22.37327 | 118.18348 | 36064 ft | 567 kts | 58° |
| 2026-05-04 13:32 | 22.41525 | 118.25559 | 36065 ft | 567 kts | 59° |
| 2026-05-04 13:32 | 22.45648 | 118.32835 | 36062 ft | 568 kts | 60° |
| 2026-05-04 13:33 | 22.49753 | 118.40136 | 36067 ft | 568 kts | 60° |
| 2026-05-04 13:33 | 22.53866 | 118.47437 | 36070 ft | 568 kts | 60° |
| 2026-05-04 13:34 | 22.57986 | 118.54738 | 36068 ft | 568 kts | 59° |
| 2026-05-04 13:34 | 22.62138 | 118.62024 | 36066 ft | 569 kts | 59° |
| 2026-05-04 13:35 | 22.68348 | 118.72912 | 36062 ft | 569 kts | 59° |
| 2026-05-04 13:36 | 22.72507 | 118.80231 | 36066 ft | 570 kts | 59° |
| 2026-05-04 13:36 | 22.76655 | 118.87549 | 36064 ft | 570 kts | 59° |
| 2026-05-04 13:37 | 22.80801 | 118.94872 | 36064 ft | 570 kts | 59° |
| 2026-05-04 13:37 | 22.84952 | 119.02215 | 36063 ft | 571 kts | 59° |
| 2026-05-04 13:38 | 22.89075 | 119.09518 | 36062 ft | 571 kts | 59° |
| 2026-05-04 13:38 | 22.93221 | 119.16873 | 36064 ft | 571 kts | 59° |
| 2026-05-04 13:39 | 22.97368 | 119.24240 | 36061 ft | 571 kts | 60° |
| 2026-05-04 13:39 | 23.01509 | 119.31607 | 36056 ft | 572 kts | 60° |
| 2026-05-04 13:40 | 23.05652 | 119.38990 | 36054 ft | 572 kts | 60° |
| 2026-05-04 13:40 | 23.09792 | 119.46375 | 36055 ft | 573 kts | 60° |
| 2026-05-04 13:41 | 23.13911 | 119.53734 | 36053 ft | 573 kts | 60° |
| 2026-05-04 13:41 | 23.18049 | 119.61139 | 36048 ft | 573 kts | 60° |
| 2026-05-04 13:42 | 23.24259 | 119.72261 | 36047 ft | 574 kts | 60° |
| 2026-05-04 13:42 | 23.28404 | 119.79699 | 36048 ft | 574 kts | 60° |
| 2026-05-04 13:43 | 23.32538 | 119.87128 | 36047 ft | 574 kts | 60° |
| 2026-05-04 13:43 | 23.37163 | 119.94154 | 36052 ft | 567 kts | 46° |
| 2026-05-04 13:44 | 23.42706 | 120.00189 | 36051 ft | 567 kts | 43° |
| 2026-05-04 13:44 | 23.48438 | 120.06087 | 36047 ft | 566 kts | 42° |
| 2026-05-04 13:45 | 23.54174 | 120.11942 | 36047 ft | 567 kts | 42° |
| 2026-05-04 13:45 | 23.59917 | 120.17843 | 36048 ft | 567 kts | 43° |
| 2026-05-04 13:46 | 23.65656 | 120.23770 | 36049 ft | 568 kts | 43° |
| 2026-05-04 13:46 | 23.71345 | 120.29660 | 36049 ft | 568 kts | 43° |
| 2026-05-04 13:47 | 23.77082 | 120.35609 | 36051 ft | 568 kts | 43° |
| 2026-05-04 13:47 | 23.82816 | 120.41560 | 36050 ft | 569 kts | 43° |
| 2026-05-04 13:48 | 23.88455 | 120.47416 | 36043 ft | 568 kts | 42° |
| 2026-05-04 13:48 | 23.94582 | 120.52778 | 36054 ft | 563 kts | 35° |
| 2026-05-04 13:49 | 24.00866 | 120.57892 | 36059 ft | 563 kts | 34° |
| 2026-05-04 13:49 | 24.07156 | 120.62947 | 36059 ft | 563 kts | 34° |
| 2026-05-04 13:50 | 24.13471 | 120.68030 | 36035 ft | 564 kts | 34° |
| 2026-05-04 13:50 | 24.19805 | 120.73147 | 35964 ft | 565 kts | 34° |
| 2026-05-04 13:51 | 24.26146 | 120.78280 | 35959 ft | 566 kts | 34° |
| 2026-05-04 13:51 | 24.32474 | 120.83422 | 35958 ft | 567 kts | 34° |
| 2026-05-04 13:52 | 24.41933 | 120.91112 | 35978 ft | 567 kts | 34° |
| 2026-05-04 13:53 | 24.48274 | 120.96273 | 36001 ft | 567 kts | 34° |
| 2026-05-04 13:53 | 24.54622 | 121.01450 | 36011 ft | 568 kts | 34° |
| 2026-05-04 13:54 | 24.64133 | 121.09208 | 36055 ft | 568 kts | 34° |
| 2026-05-04 13:55 | 24.73605 | 121.16959 | 36055 ft | 567 kts | 34° |
| 2026-05-04 13:55 | 24.83099 | 121.24743 | 36058 ft | 567 kts | 34° |
| 2026-05-04 13:56 | 24.89435 | 121.29945 | 36068 ft | 567 kts | 34° |
| 2026-05-04 13:57 | 24.98890 | 121.37719 | 36083 ft | 568 kts | 34° |
| 2026-05-04 13:58 | 25.11565 | 121.48164 | 36130 ft | 568 kts | 34° |
| 2026-05-04 13:58 | 25.20462 | 121.56877 | 36147 ft | 574 kts | 46° |
| 2026-05-04 13:59 | 25.25789 | 121.63505 | 36157 ft | 579 kts | 48° |
| 2026-05-04 14:00 | 25.33666 | 121.73579 | 36154 ft | 581 kts | 48° |
| 2026-05-04 14:00 | 25.41638 | 121.83704 | 36154 ft | 581 kts | 47° |
| 2026-05-04 14:01 | 25.46958 | 121.90450 | 36155 ft | 581 kts | 47° |
| 2026-05-04 14:02 | 25.54933 | 122.00583 | 36159 ft | 582 kts | 47° |
| 2026-05-04 14:02 | 25.60332 | 122.07246 | 36137 ft | 577 kts | 41° |
| 2026-05-04 14:03 | 25.66520 | 122.12640 | 36157 ft | 570 kts | 33° |
| 2026-05-04 14:03 | 25.72986 | 122.17742 | 36155 ft | 570 kts | 32° |
| 2026-05-04 14:04 | 25.82768 | 122.25300 | 36164 ft | 571 kts | 32° |
| 2026-05-04 14:04 | 25.89287 | 122.30367 | 36162 ft | 572 kts | 32° |
| 2026-05-04 14:05 | 25.99059 | 122.38004 | 36161 ft | 573 kts | 32° |
| 2026-05-04 14:06 | 26.05578 | 122.43112 | 36162 ft | 574 kts | 32° |
| 2026-05-04 14:06 | 26.11012 | 122.47374 | 36162 ft | 574 kts | 32° |
| 2026-05-04 14:07 | 26.17544 | 122.52504 | 36165 ft | 575 kts | 32° |
| 2026-05-04 14:07 | 26.24082 | 122.57652 | 36163 ft | 576 kts | 32° |
| 2026-05-04 14:08 | 26.30621 | 122.62810 | 36168 ft | 576 kts | 32° |
| 2026-05-04 14:08 | 26.37165 | 122.67980 | 36168 ft | 577 kts | 32° |
| 2026-05-04 14:09 | 26.46955 | 122.75727 | 36168 ft | 578 kts | 32° |
| 2026-05-04 14:10 | 26.56800 | 122.83535 | 36169 ft | 579 kts | 32° |
| 2026-05-04 14:10 | 26.63373 | 122.88741 | 36176 ft | 579 kts | 32° |
| 2026-05-04 14:11 | 26.69954 | 122.93955 | 36178 ft | 580 kts | 32° |
| 2026-05-04 14:11 | 26.79826 | 123.01797 | 36176 ft | 581 kts | 32° |
| 2026-05-04 14:12 | 26.86410 | 123.07049 | 36180 ft | 581 kts | 32° |
| 2026-05-04 14:13 | 26.96287 | 123.14951 | 36178 ft | 582 kts | 32° |
| 2026-05-04 14:13 | 27.02871 | 123.20227 | 36177 ft | 582 kts | 32° |
| 2026-05-04 14:14 | 27.09461 | 123.25514 | 36177 ft | 583 kts | 32° |
| 2026-05-04 14:14 | 27.19327 | 123.33443 | 36177 ft | 584 kts | 32° |
| 2026-05-04 14:15 | 27.32549 | 123.44099 | 36177 ft | 585 kts | 32° |
| 2026-05-04 14:16 | 27.42487 | 123.52130 | 36176 ft | 586 kts | 32° |
| 2026-05-04 14:17 | 27.52430 | 123.60184 | 36170 ft | 587 kts | 32° |
| 2026-05-04 14:18 | 27.62391 | 123.68274 | 36187 ft | 589 kts | 32° |
| 2026-05-04 14:19 | 27.75348 | 123.79736 | 36182 ft | 593 kts | 35° |
| 2026-05-04 14:19 | 27.81763 | 123.85510 | 36187 ft | 593 kts | 35° |
| 2026-05-04 14:20 | 27.88247 | 123.91290 | 36182 ft | 593 kts | 34° |
| 2026-05-04 14:20 | 27.94740 | 123.97065 | 36183 ft | 594 kts | 34° |
| 2026-05-04 14:21 | 28.04489 | 124.05757 | 36182 ft | 594 kts | 34° |
| 2026-05-04 14:21 | 28.10985 | 124.11564 | 36186 ft | 595 kts | 34° |
| 2026-05-04 14:22 | 28.17480 | 124.17382 | 36185 ft | 595 kts | 34° |
| 2026-05-04 14:22 | 28.23938 | 124.23176 | 36186 ft | 596 kts | 34° |
| 2026-05-04 14:23 | 28.33697 | 124.31948 | 36178 ft | 596 kts | 34° |
| 2026-05-04 14:24 | 28.40198 | 124.37803 | 36184 ft | 597 kts | 34° |
| 2026-05-04 14:24 | 28.46703 | 124.43669 | 36187 ft | 597 kts | 34° |
| 2026-05-04 14:25 | 28.53212 | 124.49539 | 36185 ft | 597 kts | 34° |
| 2026-05-04 14:25 | 28.62977 | 124.58380 | 36189 ft | 598 kts | 34° |
| 2026-05-04 14:26 | 28.69492 | 124.64291 | 36186 ft | 598 kts | 34° |
| 2026-05-04 14:26 | 28.76085 | 124.69927 | 36177 ft | 587 kts | 25° |
| 2026-05-04 14:27 | 28.79687 | 124.71992 | 36197 ft | 574 kts | 17° |
| 2026-05-04 14:27 | 28.83381 | 124.73696 | 36194 ft | 571 kts | 14° |
| 2026-05-04 14:27 | 28.90842 | 124.76742 | 36189 ft | 568 kts | 12° |
| 2026-05-04 14:28 | 28.98314 | 124.79638 | 36189 ft | 567 kts | 12° |
| 2026-05-04 14:28 | 29.05786 | 124.82565 | 36186 ft | 567 kts | 12° |
| 2026-05-04 14:29 | 29.20649 | 124.88499 | 36186 ft | 567 kts | 12° |
| 2026-05-04 14:30 | 29.28102 | 124.91491 | 36192 ft | 567 kts | 12° |
| 2026-05-04 14:31 | 29.39290 | 124.95990 | 36185 ft | 567 kts | 13° |
| 2026-05-04 14:32 | 29.54179 | 125.01986 | 36190 ft | 567 kts | 13° |
| 2026-05-04 14:32 | 29.61620 | 125.04992 | 36192 ft | 567 kts | 13° |
| 2026-05-04 14:33 | 29.69060 | 125.08000 | 36189 ft | 566 kts | 13° |
| 2026-05-04 14:33 | 29.76456 | 125.10990 | 36189 ft | 566 kts | 13° |
| 2026-05-04 14:34 | 29.83870 | 125.13992 | 36188 ft | 566 kts | 13° |
| 2026-05-04 14:34 | 29.91255 | 125.16997 | 36193 ft | 566 kts | 13° |
| 2026-05-04 14:35 | 29.98677 | 125.20022 | 36190 ft | 566 kts | 13° |
| 2026-05-04 14:35 | 30.06105 | 125.23055 | 36188 ft | 566 kts | 13° |
| 2026-05-04 14:36 | 30.13524 | 125.26094 | 36182 ft | 565 kts | 13° |
| 2026-05-04 14:36 | 30.20939 | 125.29137 | 36193 ft | 565 kts | 13° |
| 2026-05-04 14:37 | 30.28360 | 125.32183 | 36192 ft | 565 kts | 13° |
| 2026-05-04 14:37 | 30.35767 | 125.35228 | 36191 ft | 565 kts | 13° |
| 2026-05-04 14:38 | 30.43130 | 125.38262 | 36189 ft | 565 kts | 13° |
| 2026-05-04 14:38 | 30.50542 | 125.41321 | 36191 ft | 565 kts | 13° |
| 2026-05-04 14:39 | 30.57948 | 125.44385 | 36187 ft | 565 kts | 13° |
| 2026-05-04 14:39 | 30.65352 | 125.47451 | 36189 ft | 565 kts | 13° |
| 2026-05-04 14:40 | 30.76453 | 125.52055 | 36185 ft | 564 kts | 13° |
| 2026-05-04 14:40 | 30.83850 | 125.55128 | 36185 ft | 564 kts | 14° |
| 2026-05-04 14:41 | 30.91246 | 125.58209 | 36184 ft | 564 kts | 14° |
| 2026-05-04 14:42 | 31.05999 | 125.64369 | 36184 ft | 564 kts | 14° |
| 2026-05-04 14:42 | 31.13395 | 125.67462 | 36183 ft | 564 kts | 14° |
| 2026-05-04 14:43 | 31.20793 | 125.70559 | 36187 ft | 564 kts | 14° |
| 2026-05-04 14:43 | 31.28186 | 125.73661 | 36186 ft | 564 kts | 14° |
| 2026-05-04 14:44 | 31.35571 | 125.76770 | 36184 ft | 564 kts | 14° |
| 2026-05-04 14:44 | 31.42956 | 125.79885 | 36180 ft | 564 kts | 14° |
| 2026-05-04 14:45 | 31.50297 | 125.82983 | 36182 ft | 564 kts | 14° |
| 2026-05-04 14:45 | 31.57687 | 125.86106 | 36182 ft | 564 kts | 14° |
| 2026-05-04 14:46 | 31.65072 | 125.89224 | 36170 ft | 564 kts | 14° |
| 2026-05-04 14:46 | 31.72460 | 125.92329 | 36176 ft | 564 kts | 14° |
| 2026-05-04 14:47 | 31.79803 | 125.95421 | 36178 ft | 564 kts | 14° |
| 2026-05-04 14:47 | 31.87186 | 125.98536 | 36178 ft | 564 kts | 14° |
| 2026-05-04 14:48 | 31.94572 | 126.01660 | 36176 ft | 564 kts | 14° |
| 2026-05-04 14:48 | 32.01953 | 126.04789 | 36174 ft | 564 kts | 14° |
| 2026-05-04 14:49 | 32.09339 | 126.07926 | 36174 ft | 563 kts | 14° |
| 2026-05-04 14:49 | 32.16726 | 126.11057 | 36175 ft | 563 kts | 14° |
| 2026-05-04 14:50 | 32.24108 | 126.14188 | 36174 ft | 563 kts | 15° |
| 2026-05-04 14:50 | 32.31483 | 126.17322 | 36174 ft | 563 kts | 15° |
| 2026-05-04 14:51 | 32.38804 | 126.20441 | 36170 ft | 563 kts | 15° |
| 2026-05-04 14:51 | 32.46177 | 126.23588 | 36171 ft | 563 kts | 15° |
| 2026-05-04 14:52 | 32.53551 | 126.26742 | 36173 ft | 562 kts | 15° |
| 2026-05-04 14:52 | 32.59673 | 126.29367 | 36171 ft | 562 kts | 15° |
| 2026-05-04 14:53 | 32.68275 | 126.33061 | 36171 ft | 561 kts | 15° |
| 2026-05-04 14:53 | 32.75578 | 126.36204 | 36174 ft | 560 kts | 15° |
| 2026-05-04 14:54 | 32.81669 | 126.38830 | 36169 ft | 560 kts | 15° |
| 2026-05-04 14:54 | 32.88991 | 126.41994 | 36172 ft | 559 kts | 15° |
| 2026-05-04 14:55 | 32.96308 | 126.45159 | 36172 ft | 559 kts | 15° |
| 2026-05-04 14:55 | 33.03619 | 126.48324 | 36171 ft | 559 kts | 15° |
| 2026-05-04 14:56 | 33.10927 | 126.51465 | 36173 ft | 558 kts | 15° |
| 2026-05-04 14:56 | 33.18231 | 126.54603 | 36172 ft | 557 kts | 15° |
| 2026-05-04 14:57 | 33.25524 | 126.57748 | 36180 ft | 557 kts | 15° |
| 2026-05-04 14:57 | 33.32817 | 126.60902 | 36183 ft | 557 kts | 16° |
| 2026-05-04 14:58 | 33.40047 | 126.64036 | 36189 ft | 556 kts | 16° |
| 2026-05-04 14:58 | 33.47324 | 126.67204 | 36184 ft | 556 kts | 16° |
| 2026-05-04 14:59 | 33.54631 | 126.70146 | 36174 ft | 547 kts | 8° |
| 2026-05-04 15:00 | 33.65749 | 126.71836 | 36179 ft | 535 kts | 0° |
| 2026-05-04 15:00 | 33.73181 | 126.72611 | 36176 ft | 534 kts | 360° |
| 2026-05-04 15:01 | 33.84281 | 126.73741 | 36168 ft | 533 kts | 0° |
| 2026-05-04 15:01 | 33.91626 | 126.74513 | 36164 ft | 533 kts | 0° |
| 2026-05-04 15:02 | 33.99028 | 126.75287 | 36166 ft | 532 kts | 0° |
| 2026-05-04 15:02 | 34.06410 | 126.76058 | 36165 ft | 531 kts | 1° |
| 2026-05-04 15:03 | 34.13774 | 126.76830 | 36159 ft | 531 kts | 1° |
| 2026-05-04 15:03 | 34.21088 | 126.77599 | 36154 ft | 530 kts | 1° |
| 2026-05-04 15:04 | 34.28435 | 126.78376 | 36163 ft | 530 kts | 1° |
| 2026-05-04 15:04 | 34.35771 | 126.79154 | 36160 ft | 529 kts | 1° |
| 2026-05-04 15:05 | 34.43097 | 126.79988 | 36171 ft | 530 kts | 4° |
| 2026-05-04 15:05 | 34.50426 | 126.80906 | 36156 ft | 528 kts | 1° |
| 2026-05-04 15:06 | 34.57746 | 126.81585 | 36154 ft | 527 kts | 1° |
| 2026-05-04 15:07 | 34.68710 | 126.82672 | 36155 ft | 527 kts | 1° |
| 2026-05-04 15:07 | 34.76007 | 126.83461 | 36154 ft | 527 kts | 2° |
| 2026-05-04 15:08 | 34.83291 | 126.84545 | 36154 ft | 526 kts | 2° |
| 2026-05-04 15:08 | 34.90534 | 126.85233 | 36160 ft | 525 kts | 1° |
| 2026-05-04 15:09 | 34.97814 | 126.85866 | 36156 ft | 524 kts | 1° |
| 2026-05-04 15:09 | 35.05091 | 126.86593 | 36156 ft | 524 kts | 2° |
| 2026-05-04 15:10 | 35.15981 | 126.87773 | 36155 ft | 523 kts | 2° |
| 2026-05-04 15:11 | 35.26849 | 126.88832 | 36249 ft | 520 kts | 1° |
| 2026-05-04 15:11 | 35.30413 | 126.89188 | 36352 ft | 521 kts | 3° |
| 2026-05-04 15:11 | 35.34068 | 126.89724 | 36301 ft | 521 kts | 4° |
| 2026-05-04 15:11 | 35.37630 | 126.90213 | 36170 ft | 521 kts | 3° |
| 2026-05-04 15:12 | 35.41237 | 126.90621 | 36159 ft | 521 kts | 2° |
| 2026-05-04 15:12 | 35.48463 | 126.91363 | 36150 ft | 520 kts | 2° |
| 2026-05-04 15:13 | 35.55671 | 126.92116 | 36150 ft | 519 kts | 2° |
| 2026-05-04 15:13 | 35.62878 | 126.92896 | 36156 ft | 519 kts | 2° |
| 2026-05-04 15:14 | 35.70018 | 126.93679 | 36148 ft | 518 kts | 2° |
| 2026-05-04 15:14 | 35.77213 | 126.94472 | 36150 ft | 518 kts | 2° |
| 2026-05-04 15:15 | 35.84390 | 126.95263 | 36148 ft | 517 kts | 2° |
| 2026-05-04 15:15 | 35.91563 | 126.96056 | 36145 ft | 517 kts | 2° |
| 2026-05-04 15:16 | 36.02303 | 126.97245 | 36142 ft | 516 kts | 2° |
| 2026-05-04 15:17 | 36.13036 | 126.98436 | 36133 ft | 515 kts | 3° |
| 2026-05-04 15:17 | 36.23689 | 126.99623 | 36125 ft | 515 kts | 3° |
| 2026-05-04 15:18 | 36.30825 | 127.00420 | 36123 ft | 514 kts | 3° |
| 2026-05-04 15:19 | 36.41315 | 127.01194 | 35223 ft | 481 kts | 357° |
| 2026-05-04 15:19 | 36.44669 | 127.01121 | 34520 ft | 483 kts | 356° |
| 2026-05-04 15:19 | 36.51434 | 127.00867 | 32969 ft | 488 kts | 356° |
| 2026-05-04 15:20 | 36.54872 | 127.00714 | 32288 ft | 495 kts | 356° |
| 2026-05-04 15:20 | 36.58313 | 127.00557 | 31515 ft | 493 kts | 356° |
| 2026-05-04 15:20 | 36.61745 | 127.00309 | 30722 ft | 492 kts | 355° |
| 2026-05-04 15:20 | 36.65123 | 127.00062 | 29889 ft | 492 kts | 355° |
| 2026-05-04 15:21 | 36.68537 | 126.99852 | 28969 ft | 491 kts | 356° |
| 2026-05-04 15:21 | 36.71942 | 126.99612 | 28047 ft | 485 kts | 353° |
| 2026-05-04 15:21 | 36.78280 | 126.97317 | 26424 ft | 463 kts | 338° |
| 2026-05-04 15:22 | 36.81224 | 126.95732 | 25639 ft | 460 kts | 338° |
| 2026-05-04 15:22 | 36.84158 | 126.94146 | 24863 ft | 458 kts | 338° |
| 2026-05-04 15:22 | 36.90030 | 126.91251 | 23329 ft | 442 kts | 348° |
| 2026-05-04 15:23 | 36.92996 | 126.90996 | 22481 ft | 416 kts | 8° |
| 2026-05-04 15:23 | 36.95703 | 126.91933 | 21631 ft | 395 kts | 27° |
| 2026-05-04 15:23 | 36.97928 | 126.93792 | 20809 ft | 377 kts | 45° |
| 2026-05-04 15:23 | 36.99759 | 126.96044 | 19982 ft | 361 kts | 47° |
| 2026-05-04 15:24 | 37.03241 | 127.00252 | 18485 ft | 336 kts | 46° |
| 2026-05-04 15:24 | 37.06705 | 127.03922 | 16793 ft | 325 kts | 31° |
| 2026-05-04 15:25 | 37.08819 | 127.04866 | 15978 ft | 322 kts | 11° |
| 2026-05-04 15:25 | 37.11042 | 127.04832 | 15193 ft | 319 kts | 351° |
| 2026-05-04 15:25 | 37.13088 | 127.03842 | 14441 ft | 314 kts | 333° |
| 2026-05-04 15:26 | 37.16636 | 127.00817 | 12839 ft | 303 kts | 327° |
| 2026-05-04 15:26 | 37.18329 | 126.99293 | 12253 ft | 292 kts | 327° |
| 2026-05-04 15:26 | 37.21359 | 126.96550 | 11993 ft | 254 kts | 327° |
| 2026-05-04 15:27 | 37.22789 | 126.95262 | 11808 ft | 252 kts | 327° |
| 2026-05-04 15:27 | 37.25606 | 126.92751 | 11214 ft | 246 kts | 327° |
| 2026-05-04 15:28 | 37.28249 | 126.90071 | 10540 ft | 243 kts | 319° |
| 2026-05-04 15:28 | 37.29431 | 126.88612 | 10267 ft | 240 kts | 318° |
| 2026-05-04 15:28 | 37.31789 | 126.85660 | 9572 ft | 238 kts | 318° |
| 2026-05-04 15:29 | 37.32959 | 126.84198 | 9231 ft | 236 kts | 318° |
| 2026-05-04 15:30 | 37.37359 | 126.78248 | 7860 ft | 230 kts | 303° |
| 2026-05-04 15:30 | 37.37109 | 126.72600 | 7015 ft | 231 kts | 239° |
| 2026-05-04 15:31 | 37.34404 | 126.70476 | 6988 ft | 240 kts | 194° |
| 2026-05-04 15:31 | 37.32734 | 126.70614 | 6992 ft | 244 kts | 168° |
| 2026-05-04 15:32 | 37.28426 | 126.73962 | 6967 ft | 240 kts | 156° |
| 2026-05-04 15:32 | 37.25313 | 126.74383 | 6205 ft | 220 kts | 208° |
| 2026-05-04 15:33 | 37.23707 | 126.71550 | 5264 ft | 207 kts | 274° |
| 2026-05-04 15:34 | 37.24374 | 126.66266 | 4985 ft | 204 kts | 291° |
| 2026-05-04 15:34 | 37.24990 | 126.64688 | 4964 ft | 201 kts | 311° |
| 2026-05-04 15:34 | 37.27195 | 126.62506 | 4111 ft | 205 kts | 329° |
| 2026-05-04 15:35 | 37.29478 | 126.60571 | 3688 ft | 188 kts | 327° |
| 2026-05-04 15:35 | 37.30513 | 126.59662 | 3598 ft | 174 kts | 327° |
| 2026-05-04 15:35 | 37.31466 | 126.58808 | 3584 ft | 166 kts | 326° |
| 2026-05-04 15:36 | 37.33263 | 126.57184 | 3588 ft | 150 kts | 326° |
| 2026-05-04 15:36 | 37.34101 | 126.56424 | 3556 ft | 147 kts | 326° |
| 2026-05-04 15:36 | 37.34922 | 126.55697 | 3388 ft | 143 kts | 324° |
| 2026-05-04 15:37 | 37.35709 | 126.54934 | 3150 ft | 141 kts | 322° |
| 2026-05-04 15:37 | 37.36469 | 126.54189 | 2983 ft | 138 kts | 329° |
| 2026-05-04 15:37 | 37.37292 | 126.53565 | 2716 ft | 139 kts | 327° |
| 2026-05-04 15:37 | 37.38060 | 126.52873 | 2598 ft | 138 kts | 324° |
| 2026-05-04 15:38 | 37.38793 | 126.52115 | 2515 ft | 134 kts | 320° |
| 2026-05-04 15:38 | 37.39518 | 126.51392 | 2300 ft | 131 kts | 325° |
| 2026-05-04 15:38 | 37.40249 | 126.50715 | 2038 ft | 131 kts | 323° |
| 2026-05-04 15:38 | 37.40984 | 126.50035 | 1740 ft | 131 kts | 323° |
| 2026-05-04 15:39 | 37.41702 | 126.49318 | 1404 ft | 132 kts | 321° |
| 2026-05-04 15:39 | 37.42136 | 126.48908 | 1201 ft | 134 kts | 326° |
| 2026-05-04 15:39 | 37.43672 | 126.47625 | 656 ft | 133 kts | 327° |
| 2026-05-04 15:40 | 37.44429 | 126.46957 | 390 ft | 133 kts | 329° |
| 2026-05-04 15:40 | 37.45197 | 126.46298 | 184 ft | 134 kts | 328° |
| 2026-05-04 15:40 | 37.45705 | 126.45853 | 59 ft | 135 kts | 327° |
| 2026-05-04 15:40 | 37.46673 | 126.44968 | 37 ft | 100 kts | 321° |
| 2026-05-04 15:41 | 37.47002 | 126.44671 | 40 ft | 28 kts | 326° |
| 2026-05-04 15:41 | 37.47113 | 126.44573 | 39 ft | 30 kts | 319° |
| 2026-05-04 15:41 | 37.47239 | 126.44351 | 38 ft | 0 kts | 297° |
| 2026-05-04 15:46 | 37.47239 | 126.44352 | 38 ft | 0 kts | 297° |
| 2026-05-04 15:47 | 37.47239 | 126.44351 | 38 ft | 0 kts | 297° |
| 2026-05-04 15:47 | 37.47242 | 126.44345 | 38 ft | 2 kts | 297° |
| 2026-05-04 15:48 | 37.47248 | 126.44313 | 38 ft | 5 kts | 277° |
| 2026-05-04 15:48 | 37.47232 | 126.44263 | 37 ft | 7 kts | 234° |
| 2026-05-04 15:48 | 37.47139 | 126.44184 | 38 ft | 10 kts | 241° |
| 2026-05-04 15:49 | 37.47094 | 126.44112 | 38 ft | 12 kts | 235° |
| 2026-05-04 15:49 | 37.47037 | 126.44025 | 38 ft | 14 kts | 214° |
| 2026-05-04 15:49 | 37.46953 | 126.43965 | 38 ft | 14 kts | 216° |
| 2026-05-04 15:49 | 37.46911 | 126.43912 | 38 ft | 0 kts | 226° |
| 2026-05-04 15:50 | 37.46910 | 126.43910 | 38 ft | 0 kts | 226° |
| 2026-05-04 15:54 | 37.46910 | 126.43911 | 38 ft | 0 kts | 226° |
| 2026-05-04 16:04 | 37.46911 | 126.43911 | 38 ft | 0 kts | 226° |